sensor_id;sensor_type;location;lat;lon;timestamp;pressure;altitude;pressure_sealevel;temperature;humidity
45941;BME280;31858;46.008;8.978;2023-01-01T00:07:41;95845.44;;;6.93;100.00
45941;BME280;31858;46.008;8.978;2023-01-01T00:17:44;95847.03;;;6.76;100.00
45941;BME280;31858;46.008;8.978;2023-01-01T00:27:45;95851.56;;;6.76;100.00
45941;BME280;31858;46.008;8.978;2023-01-01T00:37:48;95846.41;;;6.71;100.00
45941;BME280;31858;46.008;8.978;2023-01-01T00:47:51;95848.41;;;6.82;100.00
45941;BME280;31858;46.008;8.978;2023-01-01T00:57:54;95849.50;;;6.90;100.00
45941;BME280;31858;46.008;8.978;2023-01-01T01:07:56;95847.34;;;6.83;100.00
45941;BME280;31858;46.008;8.978;2023-01-01T01:17:59;95837.50;;;6.93;100.00
45941;BME280;31858;46.008;8.978;2023-01-01T01:28:00;95841.56;;;6.90;100.00
45941;BME280;31858;46.008;8.978;2023-01-01T01:38:03;95845.16;;;6.85;100.00
45941;BME280;31858;46.008;8.978;2023-01-01T01:48:06;95841.09;;;6.79;100.00
45941;BME280;31858;46.008;8.978;2023-01-01T01:58:13;95835.97;;;6.74;100.00
45941;BME280;31858;46.008;8.978;2023-01-01T02:08:15;95814.44;;;6.84;100.00
45941;BME280;31858;46.008;8.978;2023-01-01T02:18:22;95800.41;;;6.93;100.00
45941;BME280;31858;46.008;8.978;2023-01-01T02:28:42;95778.00;;;6.81;100.00
45941;BME280;31858;46.008;8.978;2023-01-01T02:38:45;95776.91;;;6.82;100.00
45941;BME280;31858;46.008;8.978;2023-01-01T02:48:52;95774.88;;;6.79;100.00
45941;BME280;31858;46.008;8.978;2023-01-01T02:59:00;95764.91;;;6.76;100.00
45941;BME280;31858;46.008;8.978;2023-01-01T03:09:27;95777.03;;;6.86;100.00
45941;BME280;31858;46.008;8.978;2023-01-01T03:19:36;95781.09;;;6.83;100.00
45941;BME280;31858;46.008;8.978;2023-01-01T03:29:42;95782.44;;;6.98;100.00
45941;BME280;31858;46.008;8.978;2023-01-01T03:39:48;95765.56;;;7.11;100.00
45941;BME280;31858;46.008;8.978;2023-01-01T03:49:52;95770.47;;;6.92;100.00
45941;BME280;31858;46.008;8.978;2023-01-01T04:00:00;95751.19;;;6.83;100.00
45941;BME280;31858;46.008;8.978;2023-01-01T04:10:05;95761.94;;;6.78;100.00
45941;BME280;31858;46.008;8.978;2023-01-01T04:20:17;95771.75;;;6.86;100.00
45941;BME280;31858;46.008;8.978;2023-01-01T04:30:20;95768.50;;;6.72;100.00
45941;BME280;31858;46.008;8.978;2023-01-01T04:40:22;95778.66;;;6.70;100.00
45941;BME280;31858;46.008;8.978;2023-01-01T04:50:25;95778.47;;;6.75;100.00
45941;BME280;31858;46.008;8.978;2023-01-01T05:00:26;95775.38;;;6.73;100.00
45941;BME280;31858;46.008;8.978;2023-01-01T05:10:29;95761.63;;;6.79;100.00
45941;BME280;31858;46.008;8.978;2023-01-01T05:20:31;95779.09;;;6.72;100.00
45941;BME280;31858;46.008;8.978;2023-01-01T05:30:37;95764.59;;;6.78;100.00
45941;BME280;31858;46.008;8.978;2023-01-01T05:40:39;95759.13;;;6.83;100.00
45941;BME280;31858;46.008;8.978;2023-01-01T05:50:42;95772.78;;;7.02;100.00
45941;BME280;31858;46.008;8.978;2023-01-01T06:00:44;95774.28;;;7.12;100.00
45941;BME280;31858;46.008;8.978;2023-01-01T06:10:47;95790.47;;;6.81;100.00
45941;BME280;31858;46.008;8.978;2023-01-01T06:20:48;95800.13;;;6.77;100.00
45941;BME280;31858;46.008;8.978;2023-01-01T06:30:51;95790.13;;;6.82;100.00
45941;BME280;31858;46.008;8.978;2023-01-01T06:40:56;95785.50;;;6.71;100.00
45941;BME280;31858;46.008;8.978;2023-01-01T06:51:04;95791.09;;;6.69;100.00
45941;BME280;31858;46.008;8.978;2023-01-01T07:01:08;95799.84;;;6.70;100.00
45941;BME280;31858;46.008;8.978;2023-01-01T07:11:11;95794.06;;;6.68;100.00
45941;BME280;31858;46.008;8.978;2023-01-01T07:21:39;95811.84;;;6.67;100.00
45941;BME280;31858;46.008;8.978;2023-01-01T07:31:43;95815.88;;;6.73;100.00
45941;BME280;31858;46.008;8.978;2023-01-01T07:41:44;95819.28;;;6.74;100.00
45941;BME280;31858;46.008;8.978;2023-01-01T07:51:47;95837.06;;;6.73;100.00
45941;BME280;31858;46.008;8.978;2023-01-01T08:01:49;95829.44;;;6.72;100.00
45941;BME280;31858;46.008;8.978;2023-01-01T08:11:52;95839.56;;;6.70;100.00
45941;BME280;31858;46.008;8.978;2023-01-01T08:21:53;95839.41;;;6.75;100.00
45941;BME280;31858;46.008;8.978;2023-01-01T08:31:56;95842.50;;;6.77;100.00
45941;BME280;31858;46.008;8.978;2023-01-01T08:41:58;95837.19;;;6.85;100.00
45941;BME280;31858;46.008;8.978;2023-01-01T08:52:01;95848.06;;;7.01;100.00
45941;BME280;31858;46.008;8.978;2023-01-01T09:02:02;95838.72;;;7.04;100.00
45941;BME280;31858;46.008;8.978;2023-01-01T09:12:06;95841.66;;;7.11;100.00
45941;BME280;31858;46.008;8.978;2023-01-01T09:22:09;95841.78;;;7.14;100.00
45941;BME280;31858;46.008;8.978;2023-01-01T09:32:12;95848.47;;;7.20;100.00
45941;BME280;31858;46.008;8.978;2023-01-01T09:42:32;95846.75;;;7.25;100.00
45941;BME280;31858;46.008;8.978;2023-01-01T09:52:43;95841.09;;;7.35;100.00
45941;BME280;31858;46.008;8.978;2023-01-01T10:03:09;95837.00;;;7.46;100.00
45941;BME280;31858;46.008;8.978;2023-01-01T10:13:21;95839.47;;;7.51;100.00
45941;BME280;31858;46.008;8.978;2023-01-01T10:23:26;95822.16;;;7.53;100.00
45941;BME280;31858;46.008;8.978;2023-01-01T10:33:30;95814.50;;;7.52;100.00
45941;BME280;31858;46.008;8.978;2023-01-01T10:43:31;95813.88;;;7.55;100.00
45941;BME280;31858;46.008;8.978;2023-01-01T10:53:36;95802.75;;;7.62;100.00
45941;BME280;31858;46.008;8.978;2023-01-01T11:03:55;95787.16;;;7.60;100.00
45941;BME280;31858;46.008;8.978;2023-01-01T11:14:00;95783.94;;;7.75;100.00
45941;BME280;31858;46.008;8.978;2023-01-01T11:24:17;95777.47;;;8.06;100.00
45941;BME280;31858;46.008;8.978;2023-01-01T11:34:29;95760.25;;;7.91;100.00
45941;BME280;31858;46.008;8.978;2023-01-01T11:44:34;95752.41;;;7.95;100.00
45941;BME280;31858;46.008;8.978;2023-01-01T11:54:38;95739.47;;;7.93;100.00
45941;BME280;31858;46.008;8.978;2023-01-01T12:04:43;95737.13;;;7.92;100.00
45941;BME280;31858;46.008;8.978;2023-01-01T12:14:53;95727.81;;;7.85;100.00
45941;BME280;31858;46.008;8.978;2023-01-01T12:24:57;95710.22;;;7.81;100.00
45941;BME280;31858;46.008;8.978;2023-01-01T12:35:06;95701.28;;;7.85;100.00
45941;BME280;31858;46.008;8.978;2023-01-01T12:56:04;95671.72;;;8.08;100.00
45941;BME280;31858;46.008;8.978;2023-01-01T13:06:10;95665.69;;;8.19;100.00
45941;BME280;31858;46.008;8.978;2023-01-01T13:16:31;95652.31;;;8.28;100.00
45941;BME280;31858;46.008;8.978;2023-01-01T13:26:40;95650.03;;;8.39;100.00
45941;BME280;31858;46.008;8.978;2023-01-01T13:36:43;95648.41;;;8.46;100.00
45941;BME280;31858;46.008;8.978;2023-01-01T13:46:59;95644.66;;;8.60;100.00
45941;BME280;31858;46.008;8.978;2023-01-01T13:57:18;95650.28;;;8.58;100.00
45941;BME280;31858;46.008;8.978;2023-01-01T14:07:32;95653.59;;;8.43;100.00
45941;BME280;31858;46.008;8.978;2023-01-01T14:17:39;95659.34;;;8.45;100.00
45941;BME280;31858;46.008;8.978;2023-01-01T14:27:42;95665.22;;;8.38;100.00
45941;BME280;31858;46.008;8.978;2023-01-01T14:37:45;95675.44;;;8.28;100.00
45941;BME280;31858;46.008;8.978;2023-01-01T14:47:49;95678.63;;;8.21;100.00
45941;BME280;31858;46.008;8.978;2023-01-01T14:57:56;95663.34;;;8.51;100.00
45941;BME280;31858;46.008;8.978;2023-01-01T15:08:00;95664.69;;;8.69;100.00
45941;BME280;31858;46.008;8.978;2023-01-01T15:18:03;95671.09;;;8.56;100.00
45941;BME280;31858;46.008;8.978;2023-01-01T15:28:05;95676.34;;;8.32;100.00
45941;BME280;31858;46.008;8.978;2023-01-01T15:38:11;95700.44;;;8.27;100.00
45941;BME280;31858;46.008;8.978;2023-01-01T15:48:23;95682.06;;;8.22;100.00
45941;BME280;31858;46.008;8.978;2023-01-01T15:58:31;95699.97;;;8.45;100.00
45941;BME280;31858;46.008;8.978;2023-01-01T16:08:34;95702.69;;;8.04;100.00
45941;BME280;31858;46.008;8.978;2023-01-01T16:18:37;95716.34;;;7.94;100.00
45941;BME280;31858;46.008;8.978;2023-01-01T16:28:39;95724.00;;;7.95;100.00
45941;BME280;31858;46.008;8.978;2023-01-01T16:38:42;95712.44;;;8.12;100.00
45941;BME280;31858;46.008;8.978;2023-01-01T16:48:44;95719.91;;;7.98;100.00
45941;BME280;31858;46.008;8.978;2023-01-01T16:58:47;95726.31;;;7.97;100.00
45941;BME280;31858;46.008;8.978;2023-01-01T17:08:48;95723.72;;;7.88;100.00
45941;BME280;31858;46.008;8.978;2023-01-01T17:18:51;95741.84;;;7.86;100.00
45941;BME280;31858;46.008;8.978;2023-01-01T17:28:53;95740.75;;;7.87;100.00
45941;BME280;31858;46.008;8.978;2023-01-01T17:38:56;95747.94;;;7.86;100.00
45941;BME280;31858;46.008;8.978;2023-01-01T17:48:58;95735.97;;;8.01;100.00
45941;BME280;31858;46.008;8.978;2023-01-01T17:59:01;95740.25;;;7.94;100.00
45941;BME280;31858;46.008;8.978;2023-01-01T18:09:05;95749.63;;;7.91;100.00
45941;BME280;31858;46.008;8.978;2023-01-01T18:19:11;95753.91;;;7.83;100.00
45941;BME280;31858;46.008;8.978;2023-01-01T18:29:12;95764.50;;;7.83;100.00
45941;BME280;31858;46.008;8.978;2023-01-01T18:39:25;95774.81;;;7.85;100.00
45941;BME280;31858;46.008;8.978;2023-01-01T18:49:27;95777.13;;;7.86;100.00
45941;BME280;31858;46.008;8.978;2023-01-01T18:59:31;95774.47;;;7.86;100.00
45941;BME280;31858;46.008;8.978;2023-01-01T19:09:34;95776.03;;;7.88;100.00
45941;BME280;31858;46.008;8.978;2023-01-01T19:19:39;95772.72;;;7.91;100.00
45941;BME280;31858;46.008;8.978;2023-01-01T19:29:41;95777.25;;;7.90;100.00
45941;BME280;31858;46.008;8.978;2023-01-01T19:39:45;95777.59;;;7.89;100.00
45941;BME280;31858;46.008;8.978;2023-01-01T19:49:49;95780.25;;;7.89;100.00
45941;BME280;31858;46.008;8.978;2023-01-01T19:59:52;95781.34;;;7.88;100.00
45941;BME280;31858;46.008;8.978;2023-01-01T20:09:53;95785.03;;;7.95;100.00
45941;BME280;31858;46.008;8.978;2023-01-01T20:19:56;95788.19;;;7.89;100.00
45941;BME280;31858;46.008;8.978;2023-01-01T20:29:58;95799.72;;;7.93;100.00
45941;BME280;31858;46.008;8.978;2023-01-01T20:40:02;95798.03;;;7.88;100.00
45941;BME280;31858;46.008;8.978;2023-01-01T20:50:04;95807.88;;;7.88;100.00
45941;BME280;31858;46.008;8.978;2023-01-01T21:00:09;95799.84;;;7.96;100.00
45941;BME280;31858;46.008;8.978;2023-01-01T21:10:10;95803.66;;;7.86;100.00
45941;BME280;31858;46.008;8.978;2023-01-01T21:20:13;95806.25;;;7.95;100.00
45941;BME280;31858;46.008;8.978;2023-01-01T21:30:15;95800.56;;;7.84;100.00
45941;BME280;31858;46.008;8.978;2023-01-01T21:40:30;95813.81;;;7.84;100.00
45941;BME280;31858;46.008;8.978;2023-01-01T21:50:34;95819.72;;;7.90;100.00
45941;BME280;31858;46.008;8.978;2023-01-01T22:00:41;95813.97;;;7.88;100.00
45941;BME280;31858;46.008;8.978;2023-01-01T22:10:43;95804.53;;;7.99;100.00
45941;BME280;31858;46.008;8.978;2023-01-01T22:20:46;95803.22;;;7.84;100.00
45941;BME280;31858;46.008;8.978;2023-01-01T22:30:51;95807.19;;;7.78;100.00
45941;BME280;31858;46.008;8.978;2023-01-01T22:40:55;95810.94;;;7.77;100.00
45941;BME280;31858;46.008;8.978;2023-01-01T22:50:59;95820.44;;;7.78;100.00
45941;BME280;31858;46.008;8.978;2023-01-01T23:01:05;95817.34;;;7.76;100.00
45941;BME280;31858;46.008;8.978;2023-01-01T23:11:07;95809.09;;;7.90;100.00
45941;BME280;31858;46.008;8.978;2023-01-01T23:21:12;95792.59;;;7.84;100.00
45941;BME280;31858;46.008;8.978;2023-01-01T23:31:18;95786.06;;;7.82;100.00
45941;BME280;31858;46.008;8.978;2023-01-01T23:41:21;95774.66;;;7.81;100.00
45941;BME280;31858;46.008;8.978;2023-01-01T23:51:23;95771.94;;;7.90;100.00
